PWSweather.com
Personal Weather Stations
Station Observations
265NC
Va2kh, Stcasimir, QC G0A 3L0

Va2khStcasimir, QC G0A 3L0

Lat: 46.65839, Lon: -72.13905

Elevation: 105

Station Type: National Geographic 265NC

http://www.qsl.net/va2kh

High Low Average
Temperature 58.6°F14.8°F 39.9°F4.4°F 47.0°F8.3°F
Dew Point 41.1°F5.1°F 32.9°F0.5°F 36.2°F2.3°F
Winds 10.9 mph E17.5 mph E Calm Calm 4.0 mph 6.4 mph
Wind Gusts 25.1 mph40.4 mph 1.6 mph2.6 mph 11.7 mph18.8 mph
Humidity 87% 48% 67%
Pressure 30.54 in1034.20 in 30.42 in1030.10 in -
Precipitation 0.00 in0.00 in - -
Hour Temp Dew Point Humidity Winds Wind Gusts Pressure Precip Precip Rate Daily Precip Total
12:00 AM 43.5°F6.4°C 32.9°F0.5°C 66% 1.9 mph NE3.1 kmh NE 6.0 mph9.7 kmh 30.43 in1030.5 mb 0.00 in0.0 mm 0.00 in/hr0.0 mm/hr 0.00 in0.0 mm
12:15 AM 43.5°F6.4°C 32.9°F0.5°C 66% 1.9 mph NE3.1 kmh NE 7.6 mph12.2 kmh 30.44 in1030.8 mb 0.00 in0.0 mm 0.00 in/hr0.0 mm/hr 0.00 in0.0 mm
12:30 AM 43.5°F6.4°C 32.9°F0.5°C 66% 3.3 mph ENE5.3 kmh ENE 9.8 mph15.8 kmh 30.43 in1030.5 mb 0.00 in0.0 mm 0.00 in/hr0.0 mm/hr 0.00 in0.0 mm
12:45 AM 43.5°F6.4°C 33.3°F0.7°C 67% 2.6 mph NE4.2 kmh NE 9.2 mph14.8 kmh 30.44 in1030.8 mb 0.00 in0.0 mm 0.00 in/hr0.0 mm/hr 0.00 in0.0 mm
01:00 AM 43.3°F6.3°C 33.1°F0.6°C 67% 2.7 mph NE4.3 kmh NE 7.6 mph12.2 kmh 30.44 in1030.8 mb 0.00 in0.0 mm 0.00 in/hr0.0 mm/hr 0.00 in0.0 mm
01:15 AM 43.2°F6.2°C 33.7°F0.9°C 69% 2.3 mph ENE3.7 kmh ENE 7.6 mph12.2 kmh 30.44 in1030.8 mb 0.00 in0.0 mm 0.00 in/hr0.0 mm/hr 0.00 in0.0 mm
01:30 AM 43.2°F6.2°C 33.7°F0.9°C 69% 1.5 mph ENE2.4 kmh ENE 7.6 mph12.2 kmh 30.44 in1030.8 mb 0.00 in0.0 mm 0.00 in/hr0.0 mm/hr 0.00 in0.0 mm
01:45 AM 43.2°F6.2°C 33.7°F0.9°C 69% 2.8 mph ENE4.5 kmh ENE 7.6 mph12.2 kmh 30.44 in1030.8 mb 0.00 in0.0 mm 0.00 in/hr0.0 mm/hr 0.00 in0.0 mm
02:00 AM 43.2°F6.2°C 33.7°F0.9°C 69% 2.0 mph NE3.2 kmh NE 6.0 mph9.7 kmh 30.44 in1030.8 mb 0.00 in0.0 mm 0.00 in/hr0.0 mm/hr 0.00 in0.0 mm
02:15 AM 43.7°F6.5°C 34.2°F1.2°C 69% 3.8 mph E6.1 kmh E 15.9 mph25.6 kmh 30.44 in1030.8 mb 0.00 in0.0 mm 0.00 in/hr0.0 mm/hr 0.00 in0.0 mm
02:30 AM 44.6°F7.0°C 34.3°F1.3°C 67% 5.8 mph E9.3 kmh E 16.8 mph27.0 kmh 30.44 in1030.8 mb 0.00 in0.0 mm 0.00 in/hr0.0 mm/hr 0.00 in0.0 mm
02:45 AM 45.3°F7.4°C 34.3°F1.3°C 65% 6.8 mph E10.9 kmh E 18.3 mph29.5 kmh 30.43 in1030.5 mb 0.00 in0.0 mm 0.00 in/hr0.0 mm/hr 0.00 in0.0 mm
03:00 AM 44.6°F7.0°C 34.0°F1.1°C 66% 2.6 mph NE4.2 kmh NE 10.7 mph17.2 kmh 30.43 in1030.5 mb 0.00 in0.0 mm 0.00 in/hr0.0 mm/hr 0.00 in0.0 mm
03:15 AM 43.3°F6.3°C 34.2°F1.2°C 70% 0.6 mph NE1.0 kmh NE 3.8 mph6.1 kmh 30.43 in1030.5 mb 0.00 in0.0 mm 0.00 in/hr0.0 mm/hr 0.00 in0.0 mm
03:30 AM 43.0°F6.1°C 34.2°F1.2°C 71% 1.8 mph NE2.9 kmh NE 7.6 mph12.2 kmh 30.44 in1030.8 mb 0.00 in0.0 mm 0.00 in/hr0.0 mm/hr 0.00 in0.0 mm
03:45 AM 43.0°F6.1°C 34.2°F1.2°C 71% 1.8 mph NE2.9 kmh NE 7.6 mph12.2 kmh 30.44 in1030.8 mb 0.00 in0.0 mm 0.00 in/hr0.0 mm/hr 0.00 in0.0 mm
04:00 AM 43.0°F6.1°C 34.2°F1.2°C 71% 2.1 mph NE3.4 kmh NE 6.0 mph9.7 kmh 30.45 in1031.2 mb 0.00 in0.0 mm 0.00 in/hr0.0 mm/hr 0.00 in0.0 mm
04:15 AM 43.0°F6.1°C 34.2°F1.2°C 71% 1.4 mph ENE2.3 kmh ENE 5.4 mph8.7 kmh 30.45 in1031.2 mb 0.00 in0.0 mm 0.00 in/hr0.0 mm/hr 0.00 in0.0 mm
04:30 AM 43.0°F6.1°C 33.9°F1.1°C 70% 2.5 mph NE4.0 kmh NE 7.6 mph12.2 kmh 30.45 in1031.2 mb 0.00 in0.0 mm 0.00 in/hr0.0 mm/hr 0.00 in0.0 mm
04:45 AM 42.8°F6.0°C 34.1°F1.2°C 71% 2.0 mph ENE3.2 kmh ENE 7.6 mph12.2 kmh 30.45 in1031.2 mb 0.00 in0.0 mm 0.00 in/hr0.0 mm/hr 0.00 in0.0 mm
05:00 AM 43.0°F6.1°C 33.9°F1.1°C 70% 1.5 mph NE2.4 kmh NE 6.0 mph9.7 kmh 30.45 in1031.2 mb 0.00 in0.0 mm 0.00 in/hr0.0 mm/hr 0.00 in0.0 mm
05:15 AM 43.0°F6.1°C 33.9°F1.1°C 70% 1.1 mph NE1.8 kmh NE 5.4 mph8.7 kmh 30.46 in1031.5 mb 0.00 in0.0 mm 0.00 in/hr0.0 mm/hr 0.00 in0.0 mm
05:30 AM 43.0°F6.1°C 34.2°F1.2°C 71% 1.1 mph NE1.8 kmh NE 6.0 mph9.7 kmh 30.46 in1031.5 mb 0.00 in0.0 mm 0.00 in/hr0.0 mm/hr 0.00 in0.0 mm
05:45 AM 42.8°F6.0°C 34.1°F1.2°C 71% 1.0 mph NE1.6 kmh NE 5.4 mph8.7 kmh 30.47 in1031.8 mb 0.00 in0.0 mm 0.00 in/hr0.0 mm/hr 0.00 in0.0 mm
06:00 AM 42.8°F6.0°C 34.1°F1.2°C 71% 0.6 mph NE1.0 kmh NE 3.8 mph6.1 kmh 30.47 in1031.8 mb 0.00 in0.0 mm 0.00 in/hr0.0 mm/hr 0.00 in0.0 mm
06:15 AM 42.8°F6.0°C 34.1°F1.2°C 71% 0.7 mph NE1.1 kmh NE 4.5 mph7.2 kmh 30.47 in1031.8 mb 0.00 in0.0 mm 0.00 in/hr0.0 mm/hr 0.00 in0.0 mm
06:30 AM 42.8°F6.0°C 34.1°F1.2°C 71% 0.7 mph ENE1.1 kmh ENE 4.5 mph7.2 kmh 30.49 in1032.5 mb 0.00 in0.0 mm 0.00 in/hr0.0 mm/hr 0.00 in0.0 mm
06:45 AM 42.8°F6.0°C 34.1°F1.2°C 71% 0.9 mph NE1.4 kmh NE 5.4 mph8.7 kmh 30.48 in1032.2 mb 0.00 in0.0 mm 0.00 in/hr0.0 mm/hr 0.00 in0.0 mm
07:00 AM 43.0°F6.1°C 34.2°F1.2°C 71% 1.3 mph NE2.1 kmh NE 5.4 mph8.7 kmh 30.49 in1032.5 mb 0.00 in0.0 mm 0.00 in/hr0.0 mm/hr 0.00 in0.0 mm
07:15 AM 43.0°F6.1°C 34.6°F1.4°C 72% 1.0 mph ENE1.6 kmh ENE 4.5 mph7.2 kmh 30.49 in1032.5 mb 0.00 in0.0 mm 0.00 in/hr0.0 mm/hr 0.00 in0.0 mm
07:30 AM 43.2°F6.2°C 34.8°F1.6°C 72% 0.2 mph ENE0.3 kmh ENE 3.8 mph6.1 kmh 30.50 in1032.8 mb 0.00 in0.0 mm 0.00 in/hr0.0 mm/hr 0.00 in0.0 mm
07:45 AM 43.2°F6.2°C 34.8°F1.6°C 72% 0.9 mph E1.4 kmh E 6.0 mph9.7 kmh 30.51 in1033.2 mb 0.00 in0.0 mm 0.00 in/hr0.0 mm/hr 0.00 in0.0 mm
08:00 AM 43.3°F6.3°C 34.9°F1.6°C 72% 0.8 mph ENE1.3 kmh ENE 3.1 mph5.0 kmh 30.51 in1033.2 mb 0.00 in0.0 mm 0.00 in/hr0.0 mm/hr 0.00 in0.0 mm
08:15 AM 43.5°F6.4°C 35.1°F1.7°C 72% 0.4 mph NE0.6 kmh NE 3.1 mph5.0 kmh 30.52 in1033.5 mb 0.00 in0.0 mm 0.00 in/hr0.0 mm/hr 0.00 in0.0 mm
08:30 AM 43.9°F6.6°C 35.1°F1.7°C 71% 1.0 mph E1.6 kmh E 3.8 mph6.1 kmh 30.52 in1033.5 mb 0.00 in0.0 mm 0.00 in/hr0.0 mm/hr 0.00 in0.0 mm
08:45 AM 44.1°F6.7°C 35.3°F1.8°C 71% 0.5 mph ENE0.8 kmh ENE 6.0 mph9.7 kmh 30.52 in1033.5 mb 0.00 in0.0 mm 0.00 in/hr0.0 mm/hr 0.00 in0.0 mm
09:00 AM 44.8°F7.1°C 35.6°F2.0°C 70% 1.3 mph ENE2.1 kmh ENE 6.0 mph9.7 kmh 30.52 in1033.5 mb 0.00 in0.0 mm 0.00 in/hr0.0 mm/hr 0.00 in0.0 mm
09:15 AM 45.5°F7.5°C 35.9°F2.2°C 69% 3.2 mph E5.1 kmh E 10.7 mph17.2 kmh 30.53 in1033.9 mb 0.00 in0.0 mm 0.00 in/hr0.0 mm/hr 0.00 in0.0 mm
09:30 AM 46.8°F8.2°C 36.4°F2.4°C 67% 4.2 mph ENE6.8 kmh ENE 15.9 mph25.6 kmh 30.53 in1033.9 mb 0.00 in0.0 mm 0.00 in/hr0.0 mm/hr 0.00 in0.0 mm
09:45 AM 47.5°F8.6°C 36.7°F2.6°C 66% 6.7 mph E10.8 kmh E 20.6 mph33.2 kmh 30.53 in1033.9 mb 0.00 in0.0 mm 0.00 in/hr0.0 mm/hr 0.00 in0.0 mm
10:00 AM 47.8°F8.8°C 36.7°F2.6°C 65% 7.7 mph ESE12.4 kmh ESE 19.7 mph31.7 kmh 30.54 in1034.2 mb 0.00 in0.0 mm 0.00 in/hr0.0 mm/hr 0.00 in0.0 mm
10:15 AM 48.0°F8.9°C 36.8°F2.7°C 65% 7.1 mph E11.4 kmh E 18.3 mph29.5 kmh 30.54 in1034.2 mb 0.00 in0.0 mm 0.00 in/hr0.0 mm/hr 0.00 in0.0 mm
10:30 AM 48.4°F9.1°C 36.8°F2.7°C 64% 6.4 mph SE10.3 kmh SE 19.7 mph31.7 kmh 30.54 in1034.2 mb 0.00 in0.0 mm 0.00 in/hr0.0 mm/hr 0.00 in0.0 mm
10:45 AM 48.4°F9.1°C 36.8°F2.7°C 64% 7.8 mph E12.6 kmh E 17.4 mph28.0 kmh 30.54 in1034.2 mb 0.00 in0.0 mm 0.00 in/hr0.0 mm/hr 0.00 in0.0 mm
11:00 AM 48.0°F8.9°C 36.4°F2.4°C 64% 6.1 mph ESE9.8 kmh ESE 23.5 mph37.8 kmh 30.54 in1034.2 mb 0.00 in0.0 mm 0.00 in/hr0.0 mm/hr 0.00 in0.0 mm
11:15 AM 48.4°F9.1°C 36.8°F2.7°C 64% 8.4 mph E13.5 kmh E 19.0 mph30.6 kmh 30.53 in1033.9 mb 0.00 in0.0 mm 0.00 in/hr0.0 mm/hr 0.00 in0.0 mm
12:05 PM 52.2°F11.2°C 37.4°F3.0°C 57% 9.4 mph E15.1 kmh E 24.4 mph39.3 kmh 30.53 in1033.9 mb 0.00 in0.0 mm 0.00 in/hr0.0 mm/hr 0.00 in0.0 mm
12:10 PM 52.2°F11.2°C 37.4°F3.0°C 57% 9.7 mph E15.6 kmh E 24.4 mph39.3 kmh 30.53 in1033.9 mb 0.00 in0.0 mm 0.00 in/hr0.0 mm/hr 0.00 in0.0 mm
12:15 PM 52.3°F11.3°C 37.1°F2.8°C 56% 10.4 mph E16.7 kmh E 24.4 mph39.3 kmh 30.53 in1033.9 mb 0.00 in0.0 mm 0.00 in/hr0.0 mm/hr 0.00 in0.0 mm
12:16 PM 48.7°F9.3°C 37.1°F2.8°C 64% 8.2 mph E13.2 kmh E 19.0 mph30.6 kmh 30.53 in1033.9 mb 0.00 in0.0 mm 0.00 in/hr0.0 mm/hr 0.00 in0.0 mm
12:30 PM 52.3°F11.3°C 36.2°F2.3°C 54% 10.9 mph E17.5 kmh E 24.4 mph39.3 kmh 30.51 in1033.2 mb 0.00 in0.0 mm 0.00 in/hr0.0 mm/hr 0.00 in0.0 mm
12:45 PM 52.5°F11.4°C 36.4°F2.4°C 54% 10.1 mph E16.3 kmh E 24.4 mph39.3 kmh 30.51 in1033.2 mb 0.00 in0.0 mm 0.00 in/hr0.0 mm/hr 0.00 in0.0 mm
01:00 PM 53.1°F11.7°C 36.4°F2.4°C 53% 9.4 mph E15.1 kmh E 21.3 mph34.3 kmh 30.50 in1032.8 mb 0.00 in0.0 mm 0.00 in/hr0.0 mm/hr 0.00 in0.0 mm
01:15 PM 53.6°F12.0°C 36.9°F2.7°C 53% 6.1 mph E9.8 kmh E 25.1 mph40.4 kmh 30.51 in1033.2 mb 0.00 in0.0 mm 0.00 in/hr0.0 mm/hr 0.00 in0.0 mm
01:30 PM 53.8°F12.1°C 37.5°F3.1°C 54% 5.7 mph E9.2 kmh E 20.6 mph33.2 kmh 30.50 in1032.8 mb 0.00 in0.0 mm 0.00 in/hr0.0 mm/hr 0.00 in0.0 mm
01:45 PM 54.3°F12.4°C 38.0°F3.3°C 54% 5.1 mph E8.2 kmh E 15.2 mph24.5 kmh 30.50 in1032.8 mb 0.00 in0.0 mm 0.00 in/hr0.0 mm/hr 0.00 in0.0 mm
02:00 PM 55.2°F12.9°C 36.9°F2.7°C 50% 9.6 mph E15.4 kmh E 23.5 mph37.8 kmh 30.49 in1032.5 mb 0.00 in0.0 mm 0.00 in/hr0.0 mm/hr 0.00 in0.0 mm
02:15 PM 55.4°F13.0°C 37.6°F3.1°C 51% 8.0 mph E12.9 kmh E 22.1 mph35.6 kmh 30.48 in1032.2 mb 0.00 in0.0 mm 0.00 in/hr0.0 mm/hr 0.00 in0.0 mm
02:30 PM 55.4°F13.0°C 37.1°F2.8°C 50% 7.0 mph E11.3 kmh E 20.6 mph33.2 kmh 30.47 in1031.8 mb 0.00 in0.0 mm 0.00 in/hr0.0 mm/hr 0.00 in0.0 mm
02:45 PM 55.8°F13.2°C 38.9°F3.8°C 53% 3.3 mph E5.3 kmh E 13.0 mph20.9 kmh 30.47 in1031.8 mb 0.00 in0.0 mm 0.00 in/hr0.0 mm/hr 0.00 in0.0 mm
03:00 PM 56.5°F13.6°C 40.0°F4.4°C 54% 2.5 mph SE4.0 kmh SE 11.4 mph18.3 kmh 30.47 in1031.8 mb 0.00 in0.0 mm 0.00 in/hr0.0 mm/hr 0.00 in0.0 mm
03:15 PM 58.6°F14.8°C 41.1°F5.1°C 52% 2.5 mph E4.0 kmh E 9.8 mph15.8 kmh 30.47 in1031.8 mb 0.00 in0.0 mm 0.00 in/hr0.0 mm/hr 0.00 in0.0 mm
03:30 PM 58.1°F14.5°C 38.5°F3.6°C 48% 3.4 mph ESE5.5 kmh ESE 18.3 mph29.5 kmh 30.46 in1031.5 mb 0.00 in0.0 mm 0.00 in/hr0.0 mm/hr 0.00 in0.0 mm
03:45 PM 57.9°F14.4°C 38.9°F3.8°C 49% 2.5 mph NNW4.0 kmh NNW 13.0 mph20.9 kmh 30.47 in1031.8 mb 0.00 in0.0 mm 0.00 in/hr0.0 mm/hr 0.00 in0.0 mm
04:00 PM 55.4°F13.0°C 37.6°F3.1°C 51% 5.7 mph ESE9.2 kmh ESE 20.6 mph33.2 kmh 30.46 in1031.5 mb 0.00 in0.0 mm 0.00 in/hr0.0 mm/hr 0.00 in0.0 mm
04:15 PM 55.8°F13.2°C 38.4°F3.6°C 52% 4.1 mph E6.6 kmh E 15.9 mph25.6 kmh 30.46 in1031.5 mb 0.00 in0.0 mm 0.00 in/hr0.0 mm/hr 0.00 in0.0 mm
04:30 PM 55.0°F12.8°C 38.7°F3.7°C 54% 3.6 mph SSE5.8 kmh SSE 15.9 mph25.6 kmh 30.47 in1031.8 mb 0.00 in0.0 mm 0.00 in/hr0.0 mm/hr 0.00 in0.0 mm
04:45 PM 54.0°F12.2°C 39.1°F3.9°C 57% 5.0 mph ESE8.0 kmh ESE 19.7 mph31.7 kmh 30.47 in1031.8 mb 0.00 in0.0 mm 0.00 in/hr0.0 mm/hr 0.00 in0.0 mm
05:00 PM 54.0°F12.2°C 39.5°F4.2°C 58% 5.1 mph E8.2 kmh E 14.5 mph23.3 kmh 30.48 in1032.2 mb 0.00 in0.0 mm 0.00 in/hr0.0 mm/hr 0.00 in0.0 mm
05:15 PM 54.0°F12.2°C 38.2°F3.4°C 55% 4.4 mph S7.1 kmh S 16.8 mph27.0 kmh 30.48 in1032.2 mb 0.00 in0.0 mm 0.00 in/hr0.0 mm/hr 0.00 in0.0 mm
05:30 PM 51.8°F11.0°C 37.5°F3.1°C 58% 6.4 mph ESE10.3 kmh ESE 20.6 mph33.2 kmh 30.49 in1032.5 mb 0.00 in0.0 mm 0.00 in/hr0.0 mm/hr 0.00 in0.0 mm
05:45 PM 50.4°F10.2°C 37.4°F3.0°C 61% 5.9 mph ESE9.5 kmh ESE 15.2 mph24.5 kmh 30.48 in1032.2 mb 0.00 in0.0 mm 0.00 in/hr0.0 mm/hr 0.00 in0.0 mm
06:00 PM 49.3°F9.6°C 38.0°F3.3°C 65% 4.2 mph E6.8 kmh E 12.1 mph19.5 kmh 30.48 in1032.2 mb 0.00 in0.0 mm 0.00 in/hr0.0 mm/hr 0.00 in0.0 mm
06:15 PM 48.4°F9.1°C 37.9°F3.3°C 67% 2.0 mph E3.2 kmh E 8.3 mph13.4 kmh 30.48 in1032.2 mb 0.00 in0.0 mm 0.00 in/hr0.0 mm/hr 0.00 in0.0 mm
06:30 PM 47.7°F8.7°C 37.3°F2.9°C 67% 0.8 mph E1.3 kmh E 6.0 mph9.7 kmh 30.48 in1032.2 mb 0.00 in0.0 mm 0.00 in/hr0.0 mm/hr 0.00 in0.0 mm
06:45 PM 46.4°F8.0°C 36.8°F2.7°C 69% 0.9 mph E1.4 kmh E 6.9 mph11.1 kmh 30.48 in1032.2 mb 0.00 in0.0 mm 0.00 in/hr0.0 mm/hr 0.00 in0.0 mm
07:00 PM 45.9°F7.7°C 37.0°F2.8°C 71% 2.9 mph ESE4.7 kmh ESE 7.6 mph12.2 kmh 30.48 in1032.2 mb 0.00 in0.0 mm 0.00 in/hr0.0 mm/hr 0.00 in0.0 mm
07:15 PM 45.3°F7.4°C 37.2°F2.9°C 73% 2.4 mph E3.9 kmh E 8.3 mph13.4 kmh 30.48 in1032.2 mb 0.00 in0.0 mm 0.00 in/hr0.0 mm/hr 0.00 in0.0 mm
07:30 PM 45.1°F7.3°C 37.7°F3.2°C 75% 5.4 mph E8.7 kmh E 10.7 mph17.2 kmh 30.48 in1032.2 mb 0.00 in0.0 mm 0.00 in/hr0.0 mm/hr 0.00 in0.0 mm
07:45 PM 44.6°F7.0°C 37.5°F3.1°C 76% 3.0 mph E4.8 kmh E 7.6 mph12.2 kmh 30.48 in1032.2 mb 0.00 in0.0 mm 0.00 in/hr0.0 mm/hr 0.00 in0.0 mm
08:00 PM 44.2°F6.8°C 37.5°F3.1°C 77% 4.4 mph ESE7.1 kmh ESE 11.4 mph18.3 kmh 30.48 in1032.2 mb 0.00 in0.0 mm 0.00 in/hr0.0 mm/hr 0.00 in0.0 mm
08:15 PM 43.9°F6.6°C 37.5°F3.1°C 78% 5.3 mph ESE8.5 kmh ESE 13.0 mph20.9 kmh 30.48 in1032.2 mb 0.00 in0.0 mm 0.00 in/hr0.0 mm/hr 0.00 in0.0 mm
08:30 PM 43.7°F6.5°C 37.3°F2.9°C 78% 5.2 mph E8.4 kmh E 10.7 mph17.2 kmh 30.48 in1032.2 mb 0.00 in0.0 mm 0.00 in/hr0.0 mm/hr 0.00 in0.0 mm
08:45 PM 43.2°F6.2°C 37.1°F2.8°C 79% 4.0 mph ESE6.4 kmh ESE 9.8 mph15.8 kmh 30.48 in1032.2 mb 0.00 in0.0 mm 0.00 in/hr0.0 mm/hr 0.00 in0.0 mm
09:00 PM 42.6°F5.9°C 36.9°F2.7°C 80% 1.6 mph E2.6 kmh E 5.4 mph8.7 kmh 30.47 in1031.8 mb 0.00 in0.0 mm 0.00 in/hr0.0 mm/hr 0.00 in0.0 mm
09:15 PM 42.3°F5.7°C 36.9°F2.7°C 81% 1.7 mph E2.7 kmh E 6.0 mph9.7 kmh 30.48 in1032.2 mb 0.00 in0.0 mm 0.00 in/hr0.0 mm/hr 0.00 in0.0 mm
09:30 PM 41.9°F5.5°C 36.8°F2.7°C 82% 0.5 mph E0.8 kmh E 3.8 mph6.1 kmh 30.47 in1031.8 mb 0.00 in0.0 mm 0.00 in/hr0.0 mm/hr 0.00 in0.0 mm
09:45 PM 41.7°F5.4°C 36.9°F2.7°C 83% Calm Calm 2.2 mph3.5 kmh 30.46 in1031.5 mb 0.00 in0.0 mm 0.00 in/hr0.0 mm/hr 0.00 in0.0 mm
10:00 PM 41.4°F5.2°C 36.9°F2.7°C 84% 0.1 mph N0.2 kmh N 2.2 mph3.5 kmh 30.46 in1031.5 mb 0.00 in0.0 mm 0.00 in/hr0.0 mm/hr 0.00 in0.0 mm
10:15 PM 40.6°F4.8°C 36.5°F2.5°C 85% 0.1 mph N0.2 kmh N 1.6 mph2.6 kmh 30.46 in1031.5 mb 0.00 in0.0 mm 0.00 in/hr0.0 mm/hr 0.00 in0.0 mm
10:30 PM 40.6°F4.8°C 36.8°F2.7°C 86% 1.2 mph N1.9 kmh N 3.1 mph5.0 kmh 30.45 in1031.2 mb 0.00 in0.0 mm 0.00 in/hr0.0 mm/hr 0.00 in0.0 mm
10:45 PM 40.6°F4.8°C 36.8°F2.7°C 86% 0.3 mph NE0.5 kmh NE 3.1 mph5.0 kmh 30.44 in1030.8 mb 0.00 in0.0 mm 0.00 in/hr0.0 mm/hr 0.00 in0.0 mm
11:00 PM 40.5°F4.7°C 36.9°F2.7°C 87% 1.2 mph E1.9 kmh E 3.8 mph6.1 kmh 30.44 in1030.8 mb 0.00 in0.0 mm 0.00 in/hr0.0 mm/hr 0.00 in0.0 mm
11:15 PM 40.5°F4.7°C 36.9°F2.7°C 87% 1.8 mph ENE2.9 kmh ENE 3.8 mph6.1 kmh 30.44 in1030.8 mb 0.00 in0.0 mm 0.00 in/hr0.0 mm/hr 0.00 in0.0 mm
11:30 PM 40.6°F4.8°C 36.8°F2.7°C 86% 0.6 mph NE1.0 kmh NE 3.8 mph6.1 kmh 30.43 in1030.5 mb 0.00 in0.0 mm 0.00 in/hr0.0 mm/hr 0.00 in0.0 mm
11:45 PM 39.9°F4.4°C 36.1°F2.3°C 86% 0.6 mph N1.0 kmh N 4.5 mph7.2 kmh 30.42 in1030.1 mb 0.00 in0.0 mm 0.00 in/hr0.0 mm/hr 0.00 in0.0 mm